Time;durP1;ratioP1;P1;durP2;ratioP2;P2;SDS_P1;SDS_P2;PMS_P1;PMS_P2;Temp;Humidity;BMP_temperature;BMP_pressure;BME280_temperature;BME280_humidity;BME280_pressure;Samples;Min_cycle;Max_cycle;Signal;HPM_P1;HPM_P2
2023/04/27 00:01:40;;;;;;;17.98;14.50;;;;;;;9.55;48.82;100455.50;5019520;27;101430;-79
2023/04/27 00:04:06;;;;;;;18.20;13.77;;;;;;;9.56;48.29;100456.38;5013768;28;100373;-79
2023/04/27 00:06:33;;;;;;;19.75;13.75;;;;;;;9.53;48.49;100452.06;4997771;28;97201;-78
2023/04/27 00:08:59;;;;;;;18.48;15.00;;;;;;;9.44;48.73;100452.31;5025111;28;97204;-78
2023/04/27 00:11:25;;;;;;;16.00;14.40;;;;;;;9.41;48.69;100447.16;5011350;28;101083;-78
2023/04/27 00:13:50;;;;;;;17.38;14.95;;;;;;;9.35;48.46;100448.19;5013762;28;98134;-78
2023/04/27 00:16:16;;;;;;;15.10;13.52;;;;;;;9.41;48.85;100447.16;5011236;28;97286;-77
2023/04/27 00:18:42;;;;;;;20.00;14.88;;;;;;;9.36;49.16;100447.28;5025344;27;97522;-78
2023/04/27 00:21:08;;;;;;;16.42;13.63;;;;;;;9.29;48.80;100430.88;4995893;28;101362;-78
2023/04/27 00:23:34;;;;;;;16.95;15.18;;;;;;;9.28;49.16;100436.16;5010726;28;101455;-78
2023/04/27 00:25:59;;;;;;;16.13;14.35;;;;;;;9.17;49.03;100422.50;4996886;28;96855;-78
2023/04/27 00:28:25;;;;;;;16.52;13.90;;;;;;;9.22;48.70;100445.06;5013799;28;98258;-78
2023/04/27 00:30:53;;;;;;;24.05;14.35;;;;;;;9.23;49.21;100446.75;5030586;28;99098;-79
2023/04/27 00:33:19;;;;;;;17.05;13.88;;;;;;;9.19;48.86;100445.13;5013813;28;101956;-78
2023/04/27 00:35:46;;;;;;;15.10;13.57;;;;;;;9.11;49.30;100443.63;5039433;27;99932;-79
2023/04/27 00:38:13;;;;;;;19.92;14.48;;;;;;;9.15;49.52;100453.09;5012863;28;97008;-78
2023/04/27 00:40:38;;;;;;;25.40;14.10;;;;;;;9.02;49.58;100442.09;5023030;28;101368;-78
2023/04/27 00:43:04;;;;;;;21.73;15.07;;;;;;;9.09;49.38;100461.97;5024393;27;101369;-79
2023/04/27 00:45:30;;;;;;;16.67;14.95;;;;;;;9.03;49.26;100451.66;5042231;27;97076;-80
2023/04/27 00:47:56;;;;;;;18.90;15.32;;;;;;;8.96;49.42;100440.50;5014704;28;97482;-78
2023/04/27 00:50:28;;;;;;;16.13;14.30;;;;;;;9.02;49.92;100453.41;5027907;27;102217;-79
2023/04/27 00:52:55;;;;;;;17.60;14.52;;;;;;;9.01;49.76;100456.91;4988043;27;101123;-78
2023/04/27 00:55:21;;;;;;;16.25;14.07;;;;;;;8.98;49.43;100451.75;5013292;28;97356;-79
2023/04/27 00:57:47;;;;;;;16.92;14.60;;;;;;;8.93;49.32;100452.78;5025027;28;97214;-79
2023/04/27 01:00:14;;;;;;;25.58;14.73;;;;;;;8.98;49.48;100450.91;5022437;27;100992;-78
2023/04/27 01:02:40;;;;;;;19.55;15.05;;;;;;;8.96;49.61;100448.34;5013292;28;101214;-78
2023/04/27 01:05:07;;;;;;;19.88;14.80;;;;;;;8.91;49.53;100457.22;5022964;28;96803;-78
2023/04/27 01:07:36;;;;;;;15.55;13.93;;;;;;;8.90;49.71;100452.84;5008985;28;96856;-78
2023/04/27 01:10:02;;;;;;;17.27;15.52;;;;;;;8.76;49.96;100440.97;4992218;28;101166;-82
2023/04/27 01:12:27;;;;;;;18.45;15.25;;;;;;;8.87;49.49;100453.78;5012366;28;102576;-78
2023/04/27 01:14:53;;;;;;;16.95;14.35;;;;;;;8.82;49.76;100447.81;5013844;28;96977;-78
2023/04/27 01:17:19;;;;;;;16.55;14.75;;;;;;;8.80;49.65;100460.94;4986665;28;97331;-79
2023/04/27 01:19:45;;;;;;;20.23;15.02;;;;;;;8.73;49.48;100459.38;5030348;28;97783;-78
2023/04/27 01:22:10;;;;;;;21.10;14.73;;;;;;;8.73;50.08;100464.63;5033366;27;101837;-78
2023/04/27 01:24:36;;;;;;;18.20;14.07;;;;;;;8.68;50.19;100452.53;5013716;28;97163;-79
2023/04/27 01:27:04;;;;;;;17.65;14.70;;;;;;;8.66;50.03;100449.94;5021257;27;97411;-82
2023/04/27 01:29:29;;;;;;;16.95;13.90;;;;;;;8.66;49.90;100457.78;5009560;28;101494;-79
2023/04/27 01:31:55;;;;;;;18.90;14.98;;;;;;;8.61;49.63;100455.31;5037894;27;101331;-78
2023/04/27 01:34:21;;;;;;;18.90;14.88;;;;;;;8.61;49.38;100460.53;5030699;28;97385;-80
2023/04/27 01:36:47;;;;;;;19.15;14.48;;;;;;;8.60;49.91;100457.94;5031050;27;96966;-78
2023/04/27 01:39:13;;;;;;;18.90;14.52;;;;;;;8.61;50.07;100464.91;5031367;28;97284;-78
2023/04/27 01:41:40;;;;;;;17.30;14.40;;;;;;;8.60;50.16;100468.41;5030968;27;100023;-78
2023/04/27 01:44:06;;;;;;;18.83;13.80;;;;;;;8.47;49.87;100446.91;5007471;27;98234;-82
2023/04/27 01:46:31;;;;;;;21.60;13.82;;;;;;;8.49;50.08;100460.81;5029785;27;97012;-78
2023/04/27 01:48:57;;;;;;;18.33;15.77;;;;;;;8.31;50.02;100437.66;5037045;27;101250;-78
2023/04/27 01:51:22;;;;;;;16.63;14.90;;;;;;;8.47;49.89;100456.53;5006895;27;101232;-78
2023/04/27 01:53:48;;;;;;;22.63;15.70;;;;;;;8.35;50.61;100450.66;5030109;28;96938;-78
2023/04/27 01:56:15;;;;;;;22.55;14.60;;;;;;;8.40;50.77;100461.03;4996667;28;97348;-78
2023/04/27 01:58:41;;;;;;;19.08;14.80;;;;;;;8.40;50.32;100471.47;5011369;28;101396;-78
2023/04/27 02:01:07;;;;;;;24.90;14.02;;;;;;;8.42;50.39;100477.53;5012586;28;101667;-79
2023/04/27 02:03:32;;;;;;;23.05;16.15;;;;;;;8.42;50.46;100476.69;5001953;28;97382;-78
2023/04/27 02:05:58;;;;;;;19.55;15.38;;;;;;;8.37;50.55;100475.00;5042726;27;97163;-78
2023/04/27 02:08:23;;;;;;;18.25;14.90;;;;;;;8.36;50.24;100472.44;5008619;28;101604;-79
2023/04/27 02:10:49;;;;;;;17.52;14.82;;;;;;;8.34;50.54;100469.81;5012669;28;101571;-78
2023/04/27 02:13:15;;;;;;;16.45;14.35;;;;;;;8.31;50.64;100469.91;5012583;28;97267;-78
2023/04/27 02:15:41;;;;;;;22.13;14.63;;;;;;;8.27;50.52;100462.19;4996000;28;96957;-78
2023/04/27 02:18:06;;;;;;;19.20;14.50;;;;;;;8.28;50.74;100472.59;5004954;28;101256;-79
2023/04/27 02:20:32;;;;;;;18.65;15.48;;;;;;;8.16;50.63;100457.16;5004280;27;101414;-79
2023/04/27 02:23:00;;;;;;;21.10;14.00;;;;;;;8.14;50.52;100461.56;5012350;28;97173;-78
2023/04/27 02:25:26;;;;;;;16.05;13.88;;;;;;;8.22;50.67;100474.47;5010468;28;97401;-78
2023/04/27 02:27:52;;;;;;;15.90;13.55;;;;;;;8.12;50.77;100463.38;4995893;28;101175;-78
2023/04/27 02:30:18;;;;;;;16.80;14.90;;;;;;;8.18;50.83;100481.53;5004294;28;98340;-78
2023/04/27 02:32:44;;;;;;;15.48;13.93;;;;;;;8.15;50.46;100477.22;5011569;28;97210;-79
2023/04/27 02:35:10;;;;;;;15.50;13.68;;;;;;;8.13;50.72;100481.63;5027342;27;97052;-78
2023/04/27 02:37:35;;;;;;;22.25;15.45;;;;;;;8.12;50.96;100485.16;4997070;28;101565;-78
2023/04/27 02:40:02;;;;;;;19.58;14.07;;;;;;;8.05;50.87;100480.91;5012492;28;101485;-78
2023/04/27 02:42:30;;;;;;;17.13;14.55;;;;;;;8.10;50.40;100478.22;5025997;27;97909;-80
2023/04/27 02:44:55;;;;;;;16.48;14.05;;;;;;;8.01;50.86;100475.81;5010792;28;96932;-78
2023/04/27 02:47:21;;;;;;;22.13;14.40;;;;;;;7.95;50.82;100466.34;5019693;28;100038;-78
2023/04/27 02:49:46;;;;;;;22.83;13.98;;;;;;;8.06;50.83;100487.03;5005679;27;97784;-82
2023/04/27 02:52:12;;;;;;;18.35;14.13;;;;;;;8.01;50.78;100475.81;5004573;28;97479;-80
2023/04/27 02:54:38;;;;;;;16.38;14.45;;;;;;;7.99;50.63;100482.81;5024186;27;97090;-78
2023/04/27 02:57:03;;;;;;;15.73;13.77;;;;;;;7.82;50.63;100460.50;5012070;28;101912;-78
2023/04/27 02:59:29;;;;;;;14.75;13.40;;;;;;;7.92;50.66;100480.31;5037959;27;98244;-78
2023/04/27 03:01:55;;;;;;;16.30;14.23;;;;;;;7.89;50.85;100483.00;4997938;28;97512;-78
2023/04/27 03:04:20;;;;;;;16.73;14.82;;;;;;;7.92;50.93;100488.16;4995153;28;97120;-78
2023/04/27 03:06:47;;;;;;;20.95;15.35;;;;;;;7.72;50.83;100458.97;5016486;28;101597;-79
2023/04/27 03:09:14;;;;;;;27.83;15.93;;;;;;;7.81;50.71;100484.06;5010575;28;101515;-78
2023/04/27 03:11:39;;;;;;;16.98;14.65;;;;;;;7.77;51.07;100474.56;4998577;28;97307;-78
2023/04/27 03:14:05;;;;;;;18.17;13.35;;;;;;;7.78;51.03;100481.50;5015168;28;97392;-81
2023/04/27 03:16:31;;;;;;;16.95;14.35;;;;;;;7.70;50.98;100465.97;5031530;27;101608;-79
2023/04/27 03:18:57;;;;;;;23.85;14.88;;;;;;;7.79;50.70;100489.31;5004480;28;101275;-78
2023/04/27 03:21:23;;;;;;;20.80;13.73;;;;;;;7.75;50.83;100481.56;5025971;28;97295;-78
2023/04/27 03:23:48;;;;;;;16.05;14.35;;;;;;;7.75;51.16;100492.03;5019578;28;96961;-78
2023/04/27 03:26:15;;;;;;;22.23;13.82;;;;;;;7.74;51.08;100485.94;5042921;27;104714;-78
2023/04/27 03:28:41;;;;;;;17.02;14.52;;;;;;;7.73;51.03;100481.59;5015447;28;101764;-79
2023/04/27 03:31:07;;;;;;;19.58;15.00;;;;;;;7.73;51.08;100497.25;5025209;28;96836;-82
2023/04/27 03:33:33;;;;;;;16.13;13.70;;;;;;;7.65;51.04;100486.97;5032440;28;97140;-78
2023/04/27 03:35:59;;;;;;;18.83;14.10;;;;;;;7.59;51.49;100475.75;5027652;28;98205;-78
2023/04/27 03:38:25;;;;;;;16.88;14.90;;;;;;;7.64;51.67;100506.13;4998524;28;101878;-78
2023/04/27 03:40:52;;;;;;;23.65;14.48;;;;;;;7.60;51.72;100490.56;4996791;27;96963;-78
2023/04/27 03:43:18;;;;;;;26.90;14.95;;;;;;;7.60;51.45;100506.25;5031483;28;96843;-80
2023/04/27 03:45:45;;;;;;;21.05;14.20;;;;;;;7.59;51.70;100508.00;5020362;28;97362;-78
2023/04/27 03:48:11;;;;;;;18.42;14.70;;;;;;;7.49;51.96;100494.22;5013971;28;101048;-78
2023/04/27 03:50:36;;;;;;;17.25;15.23;;;;;;;7.56;51.87;100515.88;5014508;28;97336;-78
2023/04/27 03:53:02;;;;;;;21.13;15.40;;;;;;;7.54;51.75;100503.75;5031170;27;97184;-78
2023/04/27 03:55:28;;;;;;;19.60;15.25;;;;;;;7.44;51.73;100497.81;4995632;28;101672;-80
2023/04/27 03:57:53;;;;;;;20.58;15.02;;;;;;;7.61;52.12;100523.63;5028975;27;101459;-83
2023/04/27 04:00:20;;;;;;;20.48;15.43;;;;;;;7.66;52.09;100527.03;5011144;28;97838;-78
2023/04/27 04:02:45;;;;;;;20.85;14.88;;;;;;;7.56;52.18;100502.81;5010366;28;97206;-78
2023/04/27 04:05:13;;;;;;;22.63;14.88;;;;;;;7.54;52.25;100508.97;5014384;28;101381;-78
2023/04/27 04:07:40;;;;;;;23.52;15.48;;;;;;;7.69;52.17;100524.34;4997714;28;101557;-78
2023/04/27 04:10:07;;;;;;;16.83;14.60;;;;;;;7.67;52.20;100513.91;5029632;28;96838;-79
2023/04/27 04:12:33;;;;;;;17.83;13.63;;;;;;;7.80;52.33;100532.00;5012182;28;96840;-79
2023/04/27 04:14:59;;;;;;;18.08;15.25;;;;;;;7.86;52.33;100527.50;4993779;27;101543;-78
2023/04/27 04:17:26;;;;;;;15.75;14.15;;;;;;;7.79;52.07;100515.44;5031372;27;101207;-78
2023/04/27 04:19:51;;;;;;;16.65;13.25;;;;;;;7.81;52.03;100515.41;5011182;28;97112;-77
2023/04/27 04:22:17;;;;;;;17.08;13.98;;;;;;;7.92;52.39;100536.97;5031044;28;96978;-78
2023/04/27 04:24:43;;;;;;;16.77;13.88;;;;;;;7.98;51.81;100546.47;4993663;28;101418;-78
2023/04/27 04:27:09;;;;;;;17.63;15.45;;;;;;;7.98;51.54;100546.47;5034426;27;97291;-82
2023/04/27 04:29:35;;;;;;;17.08;13.45;;;;;;;8.02;51.66;100553.34;5013818;28;97160;-78
2023/04/27 04:32:00;;;;;;;19.67;15.13;;;;;;;7.99;51.21;100542.94;4994000;28;96917;-78
2023/04/27 04:34:28;;;;;;;21.42;13.70;;;;;;;8.05;51.80;100561.97;5011294;28;101865;-78
2023/04/27 04:36:56;;;;;;;19.17;14.23;;;;;;;7.96;51.88;100546.47;5013799;28;101197;-78
2023/04/27 04:39:21;;;;;;;15.32;13.15;;;;;;;8.04;51.68;100562.88;4996047;28;97650;-78
2023/04/27 04:41:51;;;;;;;15.10;13.50;;;;;;;7.85;51.74;100522.28;5009582;28;96893;-78
2023/04/27 04:44:19;;;;;;;17.63;13.32;;;;;;;8.05;51.13;100548.03;5040957;27;100922;-78
2023/04/27 04:46:46;;;;;;;14.15;12.65;;;;;;;8.08;51.20;100556.69;5027644;28;100152;-78
2023/04/27 04:49:11;;;;;;;15.57;13.52;;;;;;;8.14;51.67;100560.94;5005891;27;97988;-82
2023/04/27 04:51:44;;;;;;;16.17;13.27;;;;;;;8.02;51.41;100548.09;4978776;28;96909;-79
2023/04/27 04:54:11;;;;;;;17.73;13.75;;;;;;;8.18;51.49;100580.06;4995017;28;101621;-83
2023/04/27 04:56:36;;;;;;;16.10;12.00;;;;;;;8.15;50.76;100567.91;5030562;28;101533;-80
2023/04/27 04:59:02;;;;;;;14.32;12.55;;;;;;;8.23;51.36;100575.56;5029109;28;96980;-80
2023/04/27 05:01:30;;;;;;;13.82;12.52;;;;;;;8.23;51.44;100576.47;5004385;28;97178;-81
2023/04/27 05:03:56;;;;;;;13.55;11.45;;;;;;;8.33;51.40;100572.75;4992343;28;100226;-80
2023/04/27 05:06:21;;;;;;;16.55;11.68;;;;;;;8.35;50.87;100580.56;4994696;27;101633;-79
2023/04/27 05:08:47;;;;;;;16.50;12.10;;;;;;;8.30;50.51;100562.34;4988220;28;97282;-78
2023/04/27 05:11:12;;;;;;;15.52;11.43;;;;;;;8.43;51.03;100586.50;5012727;27;97404;-81
2023/04/27 05:13:39;;;;;;;13.95;10.77;;;;;;;8.40;50.35;100576.13;5010885;28;101646;-79
2023/04/27 05:16:05;;;;;;;15.45;10.85;;;;;;;8.42;50.16;100574.34;4989157;28;101402;-78
2023/04/27 05:18:31;;;;;;;13.75;12.18;;;;;;;8.52;49.73;100588.97;5011196;28;97062;-79
2023/04/27 05:20:57;;;;;;;15.77;11.27;;;;;;;8.57;50.40;100589.72;5011800;28;97442;-78
2023/04/27 05:23:22;;;;;;;12.45;11.15;;;;;;;8.56;50.33;100582.75;5013948;28;101556;-79
2023/04/27 05:25:48;;;;;;;15.35;10.50;;;;;;;8.64;50.72;100584.34;5026257;27;101729;-81
2023/04/27 05:28:13;;;;;;;11.70;10.50;;;;;;;8.72;50.71;100585.88;5027824;27;97280;-82
2023/04/27 05:30:39;;;;;;;17.63;13.48;;;;;;;8.65;50.63;100558.16;5000963;27;97146;-84
2023/04/27 05:33:05;;;;;;;14.65;12.27;;;;;;;8.89;50.20;100593.38;5019084;27;101609;-82
2023/04/27 05:35:31;;;;;;;18.45;12.52;;;;;;;8.92;50.25;100588.06;4998628;28;101426;-81
2023/04/27 05:37:56;;;;;;;13.80;11.10;;;;;;;8.92;50.17;100585.44;5006896;28;97199;-81
2023/04/27 05:40:22;;;;;;;13.32;11.85;;;;;;;8.95;50.38;100584.50;5028839;27;98003;-79
2023/04/27 05:42:48;;;;;;;13.15;11.85;;;;;;;9.00;49.83;100578.28;5030111;27;101550;-79
2023/04/27 05:45:14;;;;;;;16.52;11.73;;;;;;;9.09;49.93;100576.34;4985874;28;101687;-83
2023/04/27 05:47:40;;;;;;;16.85;11.77;;;;;;;9.25;49.81;100591.66;5017752;27;97501;-80
2023/04/27 05:50:06;;;;;;;15.38;11.90;;;;;;;9.36;49.15;100595.75;5000186;28;97883;-80
2023/04/27 05:52:32;;;;;;;14.88;12.55;;;;;;;9.22;49.33;100559.41;4996732;28;101751;-79
2023/04/27 05:54:57;;;;;;;13.60;11.27;;;;;;;9.57;49.53;100605.72;5012944;28;101656;-79
2023/04/27 05:57:24;;;;;;;18.05;12.15;;;;;;;9.69;48.40;100608.03;5030261;28;97272;-80
2023/04/27 05:59:50;;;;;;;14.32;11.27;;;;;;;9.85;48.95;100603.22;5008689;27;97295;-82
2023/04/27 06:02:16;;;;;;;14.23;12.35;;;;;;;10.01;48.44;100610.72;5024857;27;101336;-80
2023/04/27 06:04:42;;;;;;;15.27;11.93;;;;;;;10.01;48.61;100601.06;5005389;28;101096;-80
2023/04/27 06:07:11;;;;;;;15.15;11.60;;;;;;;10.26;48.72;100627.47;5010181;28;97907;-80
2023/04/27 06:09:37;;;;;;;17.77;12.02;;;;;;;10.35;48.67;100614.13;5030105;27;96847;-78
2023/04/27 06:12:03;;;;;;;19.33;11.38;;;;;;;10.42;48.16;100614.81;5006209;28;101306;-79
2023/04/27 06:14:30;;;;;;;22.40;12.77;;;;;;;10.58;47.86;100612.59;4995929;28;101006;-79
2023/04/27 06:16:55;;;;;;;15.32;11.55;;;;;;;10.67;47.67;100599.19;5023167;27;97735;-79
2023/04/27 06:19:21;;;;;;;21.95;11.77;;;;;;;10.89;47.28;100607.31;5011660;28;97441;-80
2023/04/27 06:21:46;;;;;;;15.77;11.30;;;;;;;10.99;46.74;100615.75;5021601;28;101551;-79
2023/04/27 06:24:12;;;;;;;18.65;11.18;;;;;;;11.06;46.81;100618.16;4995124;28;101523;-83
2023/04/27 06:26:37;;;;;;;11.77;10.45;;;;;;;11.19;46.65;100607.25;5011852;28;97088;-81
2023/04/27 06:29:03;;;;;;;13.43;11.00;;;;;;;11.25;46.45;100588.66;5038359;27;98023;-83
2023/04/27 06:31:29;;;;;;;16.02;11.05;;;;;;;11.73;45.89;100609.81;4992928;27;101384;-81
2023/04/27 06:33:55;;;;;;;13.63;11.05;;;;;;;11.97;44.92;100609.91;5026536;27;101369;-82
2023/04/27 06:36:21;;;;;;;12.63;11.52;;;;;;;12.30;44.50;100612.25;5025360;28;97292;-81
2023/04/27 06:38:46;;;;;;;17.15;11.52;;;;;;;12.48;44.36;100616.84;5009478;27;97082;-80
2023/04/27 06:41:12;;;;;;;14.32;11.20;;;;;;;12.80;45.00;100591.91;4993584;28;101237;-82
2023/04/27 06:43:37;;;;;;;14.38;10.13;;;;;;;13.25;43.89;100609.47;5006044;28;98056;-81
2023/04/27 06:46:05;;;;;;;15.32;10.88;;;;;;;13.52;42.77;100614.53;5033769;27;98406;-81
2023/04/27 06:48:30;;;;;;;12.90;10.38;;;;;;;13.76;42.80;100607.41;5008903;27;97101;-82
2023/04/27 06:50:56;;;;;;;12.10;10.90;;;;;;;13.95;42.34;100610.09;5018721;27;101453;-82
2023/04/27 06:53:21;;;;;;;16.10;11.75;;;;;;;14.15;42.23;100602.16;5007382;27;101626;-82
2023/04/27 06:55:47;;;;;;;11.85;10.65;;;;;;;14.50;41.68;100599.69;5042285;27;97280;-81
2023/04/27 06:58:13;;;;;;;14.05;10.15;;;;;;;14.87;41.16;100592.75;5008423;28;98198;-83
2023/04/27 07:00:38;;;;;;;10.55;9.20;;;;;;;15.31;40.56;100577.34;4998089;28;102135;-82
2023/04/27 07:03:04;;;;;;;14.70;10.55;;;;;;;15.98;39.95;100586.34;5009911;28;101439;-82
2023/04/27 07:05:29;;;;;;;12.93;11.55;;;;;;;16.45;38.84;100577.63;5008086;27;98002;-88
2023/04/27 07:07:55;;;;;;;13.27;12.00;;;;;;;16.88;37.58;100593.88;5045229;27;97069;-85
2023/04/27 07:10:20;;;;;;;10.65;7.50;;;;;;;17.17;36.70;100580.75;5028271;28;97503;-82
2023/04/27 07:12:46;;;;;;;10.13;9.13;;;;;;;17.59;36.38;100589.81;5006250;28;101335;-84
2023/04/27 07:15:12;;;;;;;11.50;8.75;;;;;;;18.09;35.19;100585.94;5009902;28;97107;-81
2023/04/27 07:17:37;;;;;;;9.88;8.68;;;;;;;18.62;35.06;100575.59;5010017;28;97153;-81
2023/04/27 07:20:04;;;;;;;8.93;8.23;;;;;;;18.98;34.38;100570.59;5009679;27;101796;-89
2023/04/27 07:22:31;;;;;;;11.20;9.10;;;;;;;18.47;34.01;100583.59;4994372;27;101387;-87
2023/04/27 07:24:56;;;;;;;8.98;8.27;;;;;;;17.88;34.81;100599.56;5043110;27;97134;-79
2023/04/27 07:27:22;;;;;;;9.88;8.82;;;;;;;17.36;35.39;100584.03;5039985;27;97268;-81
2023/04/27 07:29:47;;;;;;;14.52;8.50;;;;;;;17.10;35.94;100593.50;5021365;27;101535;-86
2023/04/27 07:32:13;;;;;;;11.80;8.95;;;;;;;16.97;36.06;100593.34;5023513;27;101568;-84
2023/04/27 07:34:39;;;;;;;9.73;8.75;;;;;;;17.11;36.36;100591.72;4977838;28;96668;-83
2023/04/27 07:37:06;;;;;;;14.32;8.55;;;;;;;17.79;35.48;100591.31;5029136;27;97339;-84
2023/04/27 07:39:32;;;;;;;11.48;7.43;;;;;;;18.04;34.42;100574.75;5008426;27;98151;-87
2023/04/27 07:41:58;;;;;;;8.57;7.68;;;;;;;18.41;33.48;100562.69;5008114;28;100216;-90
2023/04/27 07:44:24;;;;;;;9.40;8.10;;;;;;;18.00;33.08;100562.59;5004827;28;97246;-89
2023/04/27 07:46:52;;;;;;;8.68;7.97;;;;;;;17.81;33.66;100587.63;4993387;27;97057;-89
2023/04/27 07:49:19;;;;;;;12.75;8.93;;;;;;;17.70;34.34;100578.56;5018879;28;98582;-90
2023/04/27 07:51:45;;;;;;;10.43;8.27;;;;;;;18.09;33.60;100572.66;5035020;27;100345;-90
2023/04/27 07:54:10;;;;;;;10.63;9.23;;;;;;;18.57;33.93;100580.34;5015241;28;96805;-90
2023/04/27 07:56:36;;;;;;;11.80;8.50;;;;;;;18.90;33.38;100590.66;5029834;27;97175;-87
2023/04/27 07:59:02;;;;;;;12.00;8.40;;;;;;;19.07;33.14;100582.44;5020993;28;101296;-85
2023/04/27 08:01:27;;;;;;;9.27;8.38;;;;;;;19.02;33.01;100546.44;5008681;28;101601;-82
2023/04/27 08:03:53;;;;;;;8.52;7.72;;;;;;;19.31;32.48;100589.75;5012972;28;96923;-84
2023/04/27 08:06:19;;;;;;;9.40;8.38;;;;;;;19.04;32.06;100587.09;5035607;27;97140;-85
2023/04/27 08:08:44;;;;;;;14.55;8.02;;;;;;;19.16;32.23;100587.16;5016325;28;101218;-82
2023/04/27 08:11:10;;;;;;;9.27;8.40;;;;;;;19.30;32.11;100572.94;5025372;27;101608;-83
2023/04/27 08:13:36;;;;;;;10.07;7.63;;;;;;;19.50;31.87;100590.25;5004257;28;96829;-82
2023/04/27 08:16:02;;;;;;;17.05;7.97;;;;;;;19.61;31.46;100579.72;4999010;28;97928;-82
2023/04/27 08:18:27;;;;;;;8.52;7.78;;;;;;;19.43;31.49;100572.97;4996189;28;101384;-82
2023/04/27 08:20:54;;;;;;;9.68;8.57;;;;;;;19.49;31.21;100591.22;5021448;28;97631;-82
2023/04/27 08:23:19;;;;;;;9.40;8.02;;;;;;;19.60;31.34;100599.31;4990241;27;97395;-85
2023/04/27 08:25:45;;;;;;;9.70;8.60;;;;;;;19.72;31.54;100594.16;5043282;27;97821;-83
2023/04/27 08:28:12;;;;;;;9.27;8.20;;;;;;;19.75;31.75;100601.94;5011860;27;101614;-83
2023/04/27 08:30:37;;;;;;;9.35;8.48;;;;;;;19.76;31.54;100596.50;5026171;27;99981;-83
2023/04/27 08:33:03;;;;;;;10.18;7.97;;;;;;;19.72;31.67;100592.31;4984682;27;97183;-82
2023/04/27 08:35:28;;;;;;;9.45;8.25;;;;;;;19.70;31.18;100594.25;5014840;28;96985;-83
2023/04/27 08:37:54;;;;;;;9.95;8.57;;;;;;;19.49;31.96;100599.19;4997602;28;101099;-83
2023/04/27 08:40:19;;;;;;;10.93;8.90;;;;;;;19.23;32.27;100599.13;5037860;27;97715;-82
2023/04/27 08:42:56;;;;;;;10.77;8.50;;;;;;;19.02;32.54;100602.31;5025533;27;96740;-82
2023/04/27 08:45:26;;;;;;;9.98;9.13;;;;;;;19.05;32.55;100602.94;5013471;27;98089;-82
2023/04/27 08:47:52;;;;;;;14.70;9.00;;;;;;;18.80;32.89;100592.22;5020816;28;100845;-81
2023/04/27 08:50:18;;;;;;;9.93;8.60;;;;;;;18.85;33.25;100604.25;4997579;28;101405;-84
2023/04/27 08:52:45;;;;;;;9.45;8.07;;;;;;;18.99;33.23;100601.56;5014091;28;96863;-83
2023/04/27 08:55:11;;;;;;;9.15;8.27;;;;;;;18.78;32.98;100597.63;5028833;28;96923;-84
2023/04/27 08:57:37;;;;;;;11.57;8.05;;;;;;;18.83;33.11;100602.66;5024878;27;101750;-81
2023/04/27 09:00:13;;;;;;;8.73;7.88;;;;;;;19.29;32.27;100586.38;5018426;27;101360;-86
2023/04/27 09:02:47;;;;;;;8.38;7.53;;;;;;;19.52;31.68;100579.47;5008019;27;97335;-83
2023/04/27 09:05:20;;;;;;;12.85;8.25;;;;;;;19.16;31.79;100594.28;5013897;28;97299;-85
2023/04/27 09:08:04;;;;;;;9.13;8.02;;;;;;;18.47;32.24;100594.22;5019890;27;101402;-87
2023/04/27 09:10:32;;;;;;;8.77;7.93;;;;;;;18.12;32.90;100585.75;5000267;28;100347;-83
2023/04/27 09:12:59;;;;;;;8.60;7.80;;;;;;;18.86;32.81;100586.50;5012869;28;97334;-84
2023/04/27 09:15:28;;;;;;;10.80;8.25;;;;;;;19.12;32.27;100590.13;4994186;27;98808;-83
2023/04/27 09:17:55;;;;;;;8.80;7.97;;;;;;;18.76;32.94;100594.19;5008454;28;102051;-85
2023/04/27 09:20:21;;;;;;;11.68;7.85;;;;;;;19.40;32.19;100587.34;5010908;27;100960;-84
2023/04/27 09:22:50;;;;;;;8.63;7.75;;;;;;;19.63;31.28;100583.16;5010273;28;97153;-84
2023/04/27 09:25:23;;;;;;;11.60;8.18;;;;;;;19.12;31.22;100593.63;4997034;27;97412;-86
2023/04/27 09:27:49;;;;;;;8.73;7.93;;;;;;;18.53;31.86;100569.06;5034709;27;97974;-84
2023/04/27 09:30:15;;;;;;;11.98;7.93;;;;;;;18.47;31.93;100585.38;5009274;27;101872;-84
2023/04/27 09:32:56;;;;;;;8.93;7.65;;;;;;;18.05;32.16;100579.13;5000594;28;97296;-85
2023/04/27 09:35:26;;;;;;;8.67;7.97;;;;;;;17.72;32.53;100580.19;5010970;28;96967;-83
2023/04/27 09:37:52;;;;;;;9.18;8.27;;;;;;;17.60;33.28;100597.69;5027869;27;101547;-79
2023/04/27 09:40:28;;;;;;;11.02;8.23;;;;;;;17.50;33.41;100596.50;5016199;27;97427;-91
2023/04/27 09:42:55;;;;;;;9.40;8.60;;;;;;;17.25;33.17;100586.47;5011228;28;97334;-82
2023/04/27 09:45:23;;;;;;;11.70;9.65;;;;;;;17.24;34.16;100589.22;5009389;27;97375;-84
2023/04/27 09:47:48;;;;;;;11.07;8.20;;;;;;;17.15;34.26;100596.75;5010923;28;101327;-82
2023/04/27 09:50:14;;;;;;;9.20;8.23;;;;;;;17.24;34.63;100590.06;5012964;28;101001;-83
2023/04/27 09:52:40;;;;;;;10.65;8.43;;;;;;;17.44;33.83;100594.22;5008608;28;97352;-81
2023/04/27 09:55:09;;;;;;;8.85;7.97;;;;;;;17.16;33.80;100585.22;5007452;28;97273;-83
2023/04/27 09:57:34;;;;;;;9.48;8.57;;;;;;;16.98;33.57;100588.88;5020681;27;98008;-82
2023/04/27 10:00:09;;;;;;;9.15;8.18;;;;;;;16.70;33.89;100578.97;5035202;27;101354;-82
2023/04/27 10:02:44;;;;;;;13.55;8.20;;;;;;;16.53;34.88;100579.88;5041545;27;97543;-83
2023/04/27 10:05:36;;;;;;;9.50;8.50;;;;;;;16.35;34.08;100600.28;5007771;27;97379;-83
2023/04/27 10:08:04;;;;;;;10.60;9.60;;;;;;;16.22;34.77;100578.88;5027240;27;101823;-85
2023/04/27 10:10:30;;;;;;;9.80;8.90;;;;;;;16.19;35.40;100596.72;5024267;27;101247;-82
2023/04/27 10:13:06;;;;;;;10.35;8.80;;;;;;;16.01;36.02;100583.53;5014323;27;97687;-82
2023/04/27 10:15:31;;;;;;;11.15;8.18;;;;;;;16.03;36.06;100594.91;4992330;27;97132;-82
2023/04/27 10:18:03;;;;;;;10.05;8.50;;;;;;;15.97;35.87;100600.50;5005102;28;101832;-81
2023/04/27 10:20:30;;;;;;;9.20;8.25;;;;;;;15.93;35.04;100598.09;4994865;27;101742;-81
2023/04/27 10:22:57;;;;;;;11.73;8.57;;;;;;;15.89;34.99;100593.91;4993811;28;98009;-83
2023/04/27 10:25:27;;;;;;;11.98;8.73;;;;;;;15.79;35.20;100591.72;5014262;28;97652;-84
2023/04/27 10:27:54;;;;;;;9.50;8.65;;;;;;;15.80;35.58;100597.88;5008567;28;100797;-81
2023/04/27 10:30:24;;;;;;;12.43;9.25;;;;;;;15.79;36.13;100586.41;5011131;28;101236;-81
2023/04/27 10:32:58;;;;;;;9.77;8.60;;;;;;;15.73;35.89;100589.38;5026772;27;97312;-85
2023/04/27 10:35:38;;;;;;;9.63;8.70;;;;;;;15.68;35.06;100594.06;5027036;27;97146;-84
2023/04/27 10:38:08;;;;;;;9.38;8.48;;;;;;;15.67;35.44;100602.91;5041611;27;100151;-85
2023/04/27 10:40:34;;;;;;;9.00;7.85;;;;;;;15.72;35.68;100598.25;5007777;28;98081;-87
2023/04/27 10:43:15;;;;;;;12.57;7.97;;;;;;;15.88;36.00;100586.88;5006458;28;97388;-83
2023/04/27 10:45:42;;;;;;;9.32;8.52;;;;;;;16.00;36.28;100587.13;4999830;27;97338;-84
2023/04/27 10:48:07;;;;;;;9.50;8.45;;;;;;;16.16;35.97;100592.44;5007490;28;97664;-84
2023/04/27 10:50:33;;;;;;;10.95;8.77;;;;;;;16.24;35.20;100586.75;5034939;27;97413;-84
2023/04/27 10:53:06;;;;;;;8.48;7.78;;;;;;;16.40;35.55;100587.63;5044580;27;97889;-81
2023/04/27 10:55:32;;;;;;;10.13;8.50;;;;;;;16.50;34.71;100580.06;5011157;27;97434;-83
2023/04/27 10:57:58;;;;;;;12.75;7.68;;;;;;;16.50;34.05;100580.06;5016708;27;101645;-82
2023/04/27 11:00:36;;;;;;;9.90;8.70;;;;;;;16.47;34.32;100591.66;5051552;27;98303;-84
2023/04/27 11:03:13;;;;;;;11.75;8.15;;;;;;;16.32;34.13;100579.25;5030314;27;96819;-81
2023/04/27 11:05:39;;;;;;;9.10;8.23;;;;;;;16.30;34.44;100602.31;5009966;27;96813;-81
2023/04/27 11:08:09;;;;;;;8.88;7.97;;;;;;;16.20;34.12;100596.66;5030525;27;101135;-83
2023/04/27 11:10:38;;;;;;;10.75;9.75;;;;;;;16.07;33.43;100592.94;5021554;28;101817;-81
2023/04/27 11:13:08;;;;;;;10.88;9.82;;;;;;;16.03;33.49;100594.91;5015711;27;96834;-82